Fridley, Minnesota
Current Conditions -  °F | °C
As of 11:21 PM on Tuesday 25 Nov 2014 (Local Time) from KANE Reporting Station
Overcast Overcast  
Wind Chill: 21°   Ceiling: 6000
Heat Index: 27°   Visibility: 10mi
Dew Point: 19°   Wind: 5mph
Humidity: 74%   Direction: 110°ESE
Pressure: 30.02"   Gusts: NA
Location:  45.09°N, 93.26°W
Report Text: KANE 260521Z AUTO 11004KT 10SM OVC060 M03/M07 A3002 RMK AO2
Loading
Personal Weather Stations






























Interactive Weather Map New forecast layout! Learn more

10-Day Weather Forecast

Advertisements
Track Severe Weather on mobile